sensor_id;sensor_type;location;lat;lon;timestamp;temperature;humidity
65046;DHT22;54657;52.022;5.534;2023-07-13T00:00:23;19.40;71.70
65046;DHT22;54657;52.022;5.534;2023-07-13T00:02:49;19.40;71.80
65046;DHT22;54657;52.022;5.534;2023-07-13T00:05:15;19.30;71.90
65046;DHT22;54657;52.022;5.534;2023-07-13T00:07:41;19.30;71.90
65046;DHT22;54657;52.022;5.534;2023-07-13T00:10:08;19.20;71.90
65046;DHT22;54657;52.022;5.534;2023-07-13T00:12:37;19.20;72.10
65046;DHT22;54657;52.022;5.534;2023-07-13T00:15:27;19.20;72.40
65046;DHT22;54657;52.022;5.534;2023-07-13T00:17:53;19.10;72.30
65046;DHT22;54657;52.022;5.534;2023-07-13T00:20:21;19.10;72.30
65046;DHT22;54657;52.022;5.534;2023-07-13T00:22:48;19.10;72.20
65046;DHT22;54657;52.022;5.534;2023-07-13T00:25:14;19.20;72.00
65046;DHT22;54657;52.022;5.534;2023-07-13T00:27:39;19.10;72.40
65046;DHT22;54657;52.022;5.534;2023-07-13T00:30:06;19.10;72.40
65046;DHT22;54657;52.022;5.534;2023-07-13T00:32:32;19.00;72.50
65046;DHT22;54657;52.022;5.534;2023-07-13T00:34:57;19.00;72.70
65046;DHT22;54657;52.022;5.534;2023-07-13T00:37:25;18.90;72.60
65046;DHT22;54657;52.022;5.534;2023-07-13T00:39:51;18.90;72.60
65046;DHT22;54657;52.022;5.534;2023-07-13T00:42:16;18.90;72.60
65046;DHT22;54657;52.022;5.534;2023-07-13T00:45:05;18.90;72.90
65046;DHT22;54657;52.022;5.534;2023-07-13T00:47:31;18.90;73.70
65046;DHT22;54657;52.022;5.534;2023-07-13T00:49:57;18.80;72.90
65046;DHT22;54657;52.022;5.534;2023-07-13T00:52:23;18.80;73.00
65046;DHT22;54657;52.022;5.534;2023-07-13T00:54:49;18.80;73.10
65046;DHT22;54657;52.022;5.534;2023-07-13T00:57:18;18.80;73.10
65046;DHT22;54657;52.022;5.534;2023-07-13T00:59:49;18.70;73.40
65046;DHT22;54657;52.022;5.534;2023-07-13T01:02:16;18.70;73.40
65046;DHT22;54657;52.022;5.534;2023-07-13T01:04:41;18.60;73.70
65046;DHT22;54657;52.022;5.534;2023-07-13T01:07:10;18.50;74.00
65046;DHT22;54657;52.022;5.534;2023-07-13T01:09:36;18.50;74.10
65046;DHT22;54657;52.022;5.534;2023-07-13T01:12:02;18.50;74.00
65046;DHT22;54657;52.022;5.534;2023-07-13T01:14:29;18.50;73.90
65046;DHT22;54657;52.022;5.534;2023-07-13T01:16:54;18.50;74.10
65046;DHT22;54657;52.022;5.534;2023-07-13T01:19:44;18.50;73.90
65046;DHT22;54657;52.022;5.534;2023-07-13T01:22:14;18.60;74.60
65046;DHT22;54657;52.022;5.534;2023-07-13T01:24:42;18.50;73.90
65046;DHT22;54657;52.022;5.534;2023-07-13T01:27:09;18.50;74.30
65046;DHT22;54657;52.022;5.534;2023-07-13T01:29:37;18.50;74.40
65046;DHT22;54657;52.022;5.534;2023-07-13T01:32:24;18.40;74.40
65046;DHT22;54657;52.022;5.534;2023-07-13T01:34:51;18.40;75.60
65046;DHT22;54657;52.022;5.534;2023-07-13T01:37:20;18.30;74.70
65046;DHT22;54657;52.022;5.534;2023-07-13T01:39:46;18.30;74.80
65046;DHT22;54657;52.022;5.534;2023-07-13T01:42:13;18.30;74.90
65046;DHT22;54657;52.022;5.534;2023-07-13T01:44:38;18.30;75.00
65046;DHT22;54657;52.022;5.534;2023-07-13T01:47:04;18.20;74.90
65046;DHT22;54657;52.022;5.534;2023-07-13T01:49:30;18.20;75.20
65046;DHT22;54657;52.022;5.534;2023-07-13T01:51:56;18.20;75.60
65046;DHT22;54657;52.022;5.534;2023-07-13T01:54:21;18.10;75.70
65046;DHT22;54657;52.022;5.534;2023-07-13T01:56:47;18.10;75.40
65046;DHT22;54657;52.022;5.534;2023-07-13T01:59:12;18.10;75.60
65046;DHT22;54657;52.022;5.534;2023-07-13T02:01:38;18.10;75.70
65046;DHT22;54657;52.022;5.534;2023-07-13T02:04:04;18.00;75.90
65046;DHT22;54657;52.022;5.534;2023-07-13T02:06:29;18.00;76.00
65046;DHT22;54657;52.022;5.534;2023-07-13T02:08:55;18.00;76.10
65046;DHT22;54657;52.022;5.534;2023-07-13T02:11:21;18.00;76.10
65046;DHT22;54657;52.022;5.534;2023-07-13T02:13:46;18.00;76.10
65046;DHT22;54657;52.022;5.534;2023-07-13T02:16:12;17.90;76.40
65046;DHT22;54657;52.022;5.534;2023-07-13T02:18:38;17.90;76.80
65046;DHT22;54657;52.022;5.534;2023-07-13T02:21:04;17.90;76.60
65046;DHT22;54657;52.022;5.534;2023-07-13T02:23:29;17.90;76.70
65046;DHT22;54657;52.022;5.534;2023-07-13T02:25:56;17.90;76.80
65046;DHT22;54657;52.022;5.534;2023-07-13T02:28:22;17.90;77.00
65046;DHT22;54657;52.022;5.534;2023-07-13T02:30:47;17.80;77.00
65046;DHT22;54657;52.022;5.534;2023-07-13T02:33:13;17.90;77.00
65046;DHT22;54657;52.022;5.534;2023-07-13T02:35:39;17.80;77.30
65046;DHT22;54657;52.022;5.534;2023-07-13T02:38:04;17.80;77.20
65046;DHT22;54657;52.022;5.534;2023-07-13T02:40:30;17.80;77.40
65046;DHT22;54657;52.022;5.534;2023-07-13T02:42:59;17.70;77.70
65046;DHT22;54657;52.022;5.534;2023-07-13T02:45:25;17.80;77.80
65046;DHT22;54657;52.022;5.534;2023-07-13T02:47:50;17.70;78.00
65046;DHT22;54657;52.022;5.534;2023-07-13T02:50:16;17.70;77.90
65046;DHT22;54657;52.022;5.534;2023-07-13T02:52:42;17.70;78.10
65046;DHT22;54657;52.022;5.534;2023-07-13T02:55:08;17.70;78.40
65046;DHT22;54657;52.022;5.534;2023-07-13T02:57:33;17.70;78.30
65046;DHT22;54657;52.022;5.534;2023-07-13T02:59:59;17.70;78.20
65046;DHT22;54657;52.022;5.534;2023-07-13T03:02:25;17.70;78.40
65046;DHT22;54657;52.022;5.534;2023-07-13T03:04:54;17.60;79.00
65046;DHT22;54657;52.022;5.534;2023-07-13T03:07:20;17.60;79.00
65046;DHT22;54657;52.022;5.534;2023-07-13T03:09:45;17.60;79.50
65046;DHT22;54657;52.022;5.534;2023-07-13T03:12:11;17.60;79.10
65046;DHT22;54657;52.022;5.534;2023-07-13T03:14:37;17.60;79.50
65046;DHT22;54657;52.022;5.534;2023-07-13T03:17:02;17.60;79.50
65046;DHT22;54657;52.022;5.534;2023-07-13T03:19:28;17.60;79.30
65046;DHT22;54657;52.022;5.534;2023-07-13T03:21:54;17.60;79.70
65046;DHT22;54657;52.022;5.534;2023-07-13T03:24:19;17.50;79.70
65046;DHT22;54657;52.022;5.534;2023-07-13T03:26:45;17.50;79.70
65046;DHT22;54657;52.022;5.534;2023-07-13T03:29:11;17.50;79.90
65046;DHT22;54657;52.022;5.534;2023-07-13T03:31:37;17.50;80.00
65046;DHT22;54657;52.022;5.534;2023-07-13T03:34:03;17.50;79.90
65046;DHT22;54657;52.022;5.534;2023-07-13T03:36:30;17.50;80.40
65046;DHT22;54657;52.022;5.534;2023-07-13T03:38:59;17.50;80.00
65046;DHT22;54657;52.022;5.534;2023-07-13T03:41:26;17.60;80.00
65046;DHT22;54657;52.022;5.534;2023-07-13T03:43:52;17.60;80.00
65046;DHT22;54657;52.022;5.534;2023-07-13T03:46:19;17.50;80.20
65046;DHT22;54657;52.022;5.534;2023-07-13T03:48:46;17.50;80.50
65046;DHT22;54657;52.022;5.534;2023-07-13T03:51:13;17.50;80.70
65046;DHT22;54657;52.022;5.534;2023-07-13T03:53:41;17.50;80.50
65046;DHT22;54657;52.022;5.534;2023-07-13T03:56:07;17.60;80.40
65046;DHT22;54657;52.022;5.534;2023-07-13T03:58:35;17.70;80.30
65046;DHT22;54657;52.022;5.534;2023-07-13T04:01:03;17.60;80.40
65046;DHT22;54657;52.022;5.534;2023-07-13T04:03:29;17.70;80.40
65046;DHT22;54657;52.022;5.534;2023-07-13T04:06:02;17.70;80.50
65046;DHT22;54657;52.022;5.534;2023-07-13T04:08:30;17.70;80.60
65046;DHT22;54657;52.022;5.534;2023-07-13T04:10:56;17.70;80.40
65046;DHT22;54657;52.022;5.534;2023-07-13T04:13:23;17.60;80.50
65046;DHT22;54657;52.022;5.534;2023-07-13T04:15:48;17.60;80.80
65046;DHT22;54657;52.022;5.534;2023-07-13T04:18:14;17.60;81.10
65046;DHT22;54657;52.022;5.534;2023-07-13T04:20:40;17.60;81.20
65046;DHT22;54657;52.022;5.534;2023-07-13T04:23:05;17.60;81.10
65046;DHT22;54657;52.022;5.534;2023-07-13T04:25:31;17.70;81.20
65046;DHT22;54657;52.022;5.534;2023-07-13T04:27:57;17.60;81.30
65046;DHT22;54657;52.022;5.534;2023-07-13T04:30:22;17.60;81.70
65046;DHT22;54657;52.022;5.534;2023-07-13T04:32:51;17.70;81.50
65046;DHT22;54657;52.022;5.534;2023-07-13T04:35:21;17.60;81.90
65046;DHT22;54657;52.022;5.534;2023-07-13T04:37:48;17.70;81.70
65046;DHT22;54657;52.022;5.534;2023-07-13T04:40:16;17.70;82.00
65046;DHT22;54657;52.022;5.534;2023-07-13T04:42:41;17.80;81.80
65046;DHT22;54657;52.022;5.534;2023-07-13T04:45:07;17.80;82.00
65046;DHT22;54657;52.022;5.534;2023-07-13T04:47:33;17.90;82.20
65046;DHT22;54657;52.022;5.534;2023-07-13T04:49:59;17.90;82.20
65046;DHT22;54657;52.022;5.534;2023-07-13T04:52:24;18.00;82.10
65046;DHT22;54657;52.022;5.534;2023-07-13T04:54:50;18.00;82.00
65046;DHT22;54657;52.022;5.534;2023-07-13T04:57:16;18.00;82.10
65046;DHT22;54657;52.022;5.534;2023-07-13T04:59:41;18.10;82.10
65046;DHT22;54657;52.022;5.534;2023-07-13T05:02:07;18.20;81.90
65046;DHT22;54657;52.022;5.534;2023-07-13T05:04:33;18.20;82.00
65046;DHT22;54657;52.022;5.534;2023-07-13T05:06:59;18.30;82.00
65046;DHT22;54657;52.022;5.534;2023-07-13T05:09:25;18.30;82.20
65046;DHT22;54657;52.022;5.534;2023-07-13T05:11:50;18.30;82.40
65046;DHT22;54657;52.022;5.534;2023-07-13T05:14:16;18.30;82.30
65046;DHT22;54657;52.022;5.534;2023-07-13T05:16:42;18.20;82.60
65046;DHT22;54657;52.022;5.534;2023-07-13T05:19:08;18.20;83.60
65046;DHT22;54657;52.022;5.534;2023-07-13T05:21:34;18.10;83.00
65046;DHT22;54657;52.022;5.534;2023-07-13T05:23:59;18.20;83.00
65046;DHT22;54657;52.022;5.534;2023-07-13T05:26:25;18.30;82.60
65046;DHT22;54657;52.022;5.534;2023-07-13T05:28:51;18.30;82.90
65046;DHT22;54657;52.022;5.534;2023-07-13T05:31:16;18.30;83.10
65046;DHT22;54657;52.022;5.534;2023-07-13T05:33:42;18.30;83.20
65046;DHT22;54657;52.022;5.534;2023-07-13T05:36:08;18.30;83.30
65046;DHT22;54657;52.022;5.534;2023-07-13T05:38:34;18.30;83.50
65046;DHT22;54657;52.022;5.534;2023-07-13T05:41:00;18.30;83.60
65046;DHT22;54657;52.022;5.534;2023-07-13T05:43:26;18.30;84.30
65046;DHT22;54657;52.022;5.534;2023-07-13T05:45:56;18.30;83.90
65046;DHT22;54657;52.022;5.534;2023-07-13T05:48:22;18.40;83.90
65046;DHT22;54657;52.022;5.534;2023-07-13T05:50:48;18.40;83.70
65046;DHT22;54657;52.022;5.534;2023-07-13T05:53:14;18.40;83.90
65046;DHT22;54657;52.022;5.534;2023-07-13T05:55:44;18.40;83.90
65046;DHT22;54657;52.022;5.534;2023-07-13T05:58:13;18.40;84.60
65046;DHT22;54657;52.022;5.534;2023-07-13T06:00:39;18.40;84.00
65046;DHT22;54657;52.022;5.534;2023-07-13T06:03:06;18.40;84.30
65046;DHT22;54657;52.022;5.534;2023-07-13T06:05:32;18.40;84.20
65046;DHT22;54657;52.022;5.534;2023-07-13T06:07:59;18.40;84.30
65046;DHT22;54657;52.022;5.534;2023-07-13T06:10:25;18.50;84.50
65046;DHT22;54657;52.022;5.534;2023-07-13T06:12:50;18.50;84.30
65046;DHT22;54657;52.022;5.534;2023-07-13T06:15:16;18.60;84.40
65046;DHT22;54657;52.022;5.534;2023-07-13T06:17:42;18.60;84.20
65046;DHT22;54657;52.022;5.534;2023-07-13T06:20:08;18.70;84.20
65046;DHT22;54657;52.022;5.534;2023-07-13T06:22:33;18.70;84.40
65046;DHT22;54657;52.022;5.534;2023-07-13T06:24:59;18.70;84.30
65046;DHT22;54657;52.022;5.534;2023-07-13T06:27:25;18.80;84.50
65046;DHT22;54657;52.022;5.534;2023-07-13T06:29:50;18.80;84.60
65046;DHT22;54657;52.022;5.534;2023-07-13T06:32:16;18.80;84.60
65046;DHT22;54657;52.022;5.534;2023-07-13T06:34:42;18.90;84.50
65046;DHT22;54657;52.022;5.534;2023-07-13T06:37:08;18.90;84.50
65046;DHT22;54657;52.022;5.534;2023-07-13T06:39:34;18.90;84.50
65046;DHT22;54657;52.022;5.534;2023-07-13T06:41:59;19.00;84.70
65046;DHT22;54657;52.022;5.534;2023-07-13T06:44:25;19.00;84.60
65046;DHT22;54657;52.022;5.534;2023-07-13T06:46:51;19.10;84.70
65046;DHT22;54657;52.022;5.534;2023-07-13T06:49:16;19.20;84.70
65046;DHT22;54657;52.022;5.534;2023-07-13T06:51:42;19.10;84.80
65046;DHT22;54657;52.022;5.534;2023-07-13T06:54:07;19.10;84.70
65046;DHT22;54657;52.022;5.534;2023-07-13T06:56:33;19.10;84.90
65046;DHT22;54657;52.022;5.534;2023-07-13T06:58:59;19.20;84.80
65046;DHT22;54657;52.022;5.534;2023-07-13T07:01:25;19.30;84.60
65046;DHT22;54657;52.022;5.534;2023-07-13T07:03:51;19.40;84.60
65046;DHT22;54657;52.022;5.534;2023-07-13T07:06:19;19.40;84.50
65046;DHT22;54657;52.022;5.534;2023-07-13T07:08:45;19.50;84.60
65046;DHT22;54657;52.022;5.534;2023-07-13T07:11:13;19.50;84.60
65046;DHT22;54657;52.022;5.534;2023-07-13T07:13:39;19.60;84.60
65046;DHT22;54657;52.022;5.534;2023-07-13T07:16:05;19.70;84.10
65046;DHT22;54657;52.022;5.534;2023-07-13T07:18:31;19.70;84.20
65046;DHT22;54657;52.022;5.534;2023-07-13T07:20:56;19.70;84.10
65046;DHT22;54657;52.022;5.534;2023-07-13T07:23:22;19.80;84.30
65046;DHT22;54657;52.022;5.534;2023-07-13T07:25:48;19.80;84.20
65046;DHT22;54657;52.022;5.534;2023-07-13T07:28:16;19.90;84.20
65046;DHT22;54657;52.022;5.534;2023-07-13T07:30:45;19.90;84.10
65046;DHT22;54657;52.022;5.534;2023-07-13T07:33:12;19.90;83.80
65046;DHT22;54657;52.022;5.534;2023-07-13T07:35:38;19.80;84.10
65046;DHT22;54657;52.022;5.534;2023-07-13T07:38:04;19.80;84.40
65046;DHT22;54657;52.022;5.534;2023-07-13T07:40:29;19.90;84.10
65046;DHT22;54657;52.022;5.534;2023-07-13T07:42:56;20.10;84.10
65046;DHT22;54657;52.022;5.534;2023-07-13T07:45:21;20.20;83.80
65046;DHT22;54657;52.022;5.534;2023-07-13T07:47:47;20.40;83.90
65046;DHT22;54657;52.022;5.534;2023-07-13T07:50:13;20.50;83.30
65046;DHT22;54657;52.022;5.534;2023-07-13T07:52:38;20.60;83.10
65046;DHT22;54657;52.022;5.534;2023-07-13T07:55:06;20.70;83.00
65046;DHT22;54657;52.022;5.534;2023-07-13T07:57:32;20.80;82.90
65046;DHT22;54657;52.022;5.534;2023-07-13T07:59:58;20.80;82.90
65046;DHT22;54657;52.022;5.534;2023-07-13T08:02:24;20.80;82.80
65046;DHT22;54657;52.022;5.534;2023-07-13T08:04:50;20.80;82.70
65046;DHT22;54657;52.022;5.534;2023-07-13T08:07:15;20.90;82.70
65046;DHT22;54657;52.022;5.534;2023-07-13T08:09:41;20.80;82.60
65046;DHT22;54657;52.022;5.534;2023-07-13T08:12:08;20.70;82.60
65046;DHT22;54657;52.022;5.534;2023-07-13T08:14:33;20.60;82.90
65046;DHT22;54657;52.022;5.534;2023-07-13T08:16:59;20.50;83.30
65046;DHT22;54657;52.022;5.534;2023-07-13T08:19:24;20.50;83.30
65046;DHT22;54657;52.022;5.534;2023-07-13T08:21:50;20.50;83.20
65046;DHT22;54657;52.022;5.534;2023-07-13T08:24:16;20.60;83.20
65046;DHT22;54657;52.022;5.534;2023-07-13T08:26:44;20.80;83.20
65046;DHT22;54657;52.022;5.534;2023-07-13T08:29:10;21.00;82.50
65046;DHT22;54657;52.022;5.534;2023-07-13T08:31:36;21.10;82.20
65046;DHT22;54657;52.022;5.534;2023-07-13T08:34:02;21.20;81.70
65046;DHT22;54657;52.022;5.534;2023-07-13T08:36:29;21.20;81.60
65046;DHT22;54657;52.022;5.534;2023-07-13T08:38:55;21.30;81.50
65046;DHT22;54657;52.022;5.534;2023-07-13T08:41:21;21.30;80.90
65046;DHT22;54657;52.022;5.534;2023-07-13T08:43:54;21.40;80.40
65046;DHT22;54657;52.022;5.534;2023-07-13T08:48:57;21.80;79.60
65046;DHT22;54657;52.022;5.534;2023-07-13T08:51:53;21.80;79.20
65046;DHT22;54657;52.022;5.534;2023-07-13T08:54:22;21.70;77.70
65046;DHT22;54657;52.022;5.534;2023-07-13T08:56:50;21.60;78.40
65046;DHT22;54657;52.022;5.534;2023-07-13T08:59:22;21.60;77.80
65046;DHT22;54657;52.022;5.534;2023-07-13T09:04:19;21.40;77.00
65046;DHT22;54657;52.022;5.534;2023-07-13T09:07:14;21.40;78.80
65046;DHT22;54657;52.022;5.534;2023-07-13T09:10:18;21.30;77.50
65046;DHT22;54657;52.022;5.534;2023-07-13T09:12:56;21.30;78.10
65046;DHT22;54657;52.022;5.534;2023-07-13T09:15:36;21.30;79.30
65046;DHT22;54657;52.022;5.534;2023-07-13T09:18:21;21.20;79.60
65046;DHT22;54657;52.022;5.534;2023-07-13T09:21:02;21.10;79.50
65046;DHT22;54657;52.022;5.534;2023-07-13T09:23:30;21.10;77.90
65046;DHT22;54657;52.022;5.534;2023-07-13T09:26:25;21.10;79.20
65046;DHT22;54657;52.022;5.534;2023-07-13T09:29:23;21.20;78.60
65046;DHT22;54657;52.022;5.534;2023-07-13T09:31:54;21.30;77.80
65046;DHT22;54657;52.022;5.534;2023-07-13T09:34:21;21.40;79.00
65046;DHT22;54657;52.022;5.534;2023-07-13T09:36:46;21.50;78.30
65046;DHT22;54657;52.022;5.534;2023-07-13T09:42:12;21.80;76.40
65046;DHT22;54657;52.022;5.534;2023-07-13T09:44:53;22.00;77.00
65046;DHT22;54657;52.022;5.534;2023-07-13T09:47:31;22.10;77.10
65046;DHT22;54657;52.022;5.534;2023-07-13T09:49:58;22.30;77.20
65046;DHT22;54657;52.022;5.534;2023-07-13T09:52:25;22.40;77.30
65046;DHT22;54657;52.022;5.534;2023-07-13T09:54:53;22.30;77.30
65046;DHT22;54657;52.022;5.534;2023-07-13T09:57:26;22.40;77.50
65046;DHT22;54657;52.022;5.534;2023-07-13T09:59:53;22.60;77.30
65046;DHT22;54657;52.022;5.534;2023-07-13T10:07:24;22.30;78.00
65046;DHT22;54657;52.022;5.534;2023-07-13T10:09:54;22.20;78.40
65046;DHT22;54657;52.022;5.534;2023-07-13T10:12:21;22.20;79.00
65046;DHT22;54657;52.022;5.534;2023-07-13T10:14:51;22.20;79.50
65046;DHT22;54657;52.022;5.534;2023-07-13T10:17:26;22.30;79.40
65046;DHT22;54657;52.022;5.534;2023-07-13T10:20:03;22.50;79.60
65046;DHT22;54657;52.022;5.534;2023-07-13T10:22:36;22.60;79.10
65046;DHT22;54657;52.022;5.534;2023-07-13T10:25:16;22.70;78.40
65046;DHT22;54657;52.022;5.534;2023-07-13T10:27:44;22.60;77.10
65046;DHT22;54657;52.022;5.534;2023-07-13T10:30:17;22.50;78.20
65046;DHT22;54657;52.022;5.534;2023-07-13T10:32:45;22.40;78.10
65046;DHT22;54657;52.022;5.534;2023-07-13T10:35:14;22.30;77.90
65046;DHT22;54657;52.022;5.534;2023-07-13T10:38:03;22.20;77.40
65046;DHT22;54657;52.022;5.534;2023-07-13T10:40:45;22.20;76.00
65046;DHT22;54657;52.022;5.534;2023-07-13T10:43:27;22.30;77.30
65046;DHT22;54657;52.022;5.534;2023-07-13T10:45:54;22.40;75.70
65046;DHT22;54657;52.022;5.534;2023-07-13T10:48:21;22.50;76.60
65046;DHT22;54657;52.022;5.534;2023-07-13T10:50:50;22.50;76.20
65046;DHT22;54657;52.022;5.534;2023-07-13T10:53:28;22.20;76.50
65046;DHT22;54657;52.022;5.534;2023-07-13T10:58:41;21.80;78.50
65046;DHT22;54657;52.022;5.534;2023-07-13T11:01:17;21.70;79.60
65046;DHT22;54657;52.022;5.534;2023-07-13T11:06:18;21.80;80.90
65046;DHT22;54657;52.022;5.534;2023-07-13T11:08:56;22.00;80.60
65046;DHT22;54657;52.022;5.534;2023-07-13T11:19:08;22.60;80.50
65046;DHT22;54657;52.022;5.534;2023-07-13T11:24:29;22.80;78.00
65046;DHT22;54657;52.022;5.534;2023-07-13T11:35:37;23.30;77.00
65046;DHT22;54657;52.022;5.534;2023-07-13T11:38:14;23.30;76.90
65046;DHT22;54657;52.022;5.534;2023-07-13T11:40:44;23.30;75.00
65046;DHT22;54657;52.022;5.534;2023-07-13T11:43:13;23.40;76.50
65046;DHT22;54657;52.022;5.534;2023-07-13T11:45:39;23.50;75.70
65046;DHT22;54657;52.022;5.534;2023-07-13T11:48:16;23.60;75.70
65046;DHT22;54657;52.022;5.534;2023-07-13T11:50:50;23.70;74.80
65046;DHT22;54657;52.022;5.534;2023-07-13T11:53:16;23.60;74.40
65046;DHT22;54657;52.022;5.534;2023-07-13T11:55:42;23.60;75.20
65046;DHT22;54657;52.022;5.534;2023-07-13T11:58:10;23.50;74.90
65046;DHT22;54657;52.022;5.534;2023-07-13T12:00:37;23.20;75.30
65046;DHT22;54657;52.022;5.534;2023-07-13T12:03:03;23.00;75.90
65046;DHT22;54657;52.022;5.534;2023-07-13T12:05:30;23.10;76.30
65046;DHT22;54657;52.022;5.534;2023-07-13T12:07:58;23.20;76.00
65046;DHT22;54657;52.022;5.534;2023-07-13T12:10:26;23.30;75.40
65046;DHT22;54657;52.022;5.534;2023-07-13T12:13:00;23.50;74.70
65046;DHT22;54657;52.022;5.534;2023-07-13T12:15:30;23.60;73.60
65046;DHT22;54657;52.022;5.534;2023-07-13T12:18:01;23.60;70.00
65046;DHT22;54657;52.022;5.534;2023-07-13T12:20:38;23.80;73.80
65046;DHT22;54657;52.022;5.534;2023-07-13T12:23:24;23.90;71.10
65046;DHT22;54657;52.022;5.534;2023-07-13T12:25:51;24.00;71.50
65046;DHT22;54657;52.022;5.534;2023-07-13T12:28:22;23.80;73.00
65046;DHT22;54657;52.022;5.534;2023-07-13T12:30:58;23.70;72.70
65046;DHT22;54657;52.022;5.534;2023-07-13T12:33:27;23.60;72.30
65046;DHT22;54657;52.022;5.534;2023-07-13T12:35:53;23.50;72.80
65046;DHT22;54657;52.022;5.534;2023-07-13T12:38:19;23.30;73.20
65046;DHT22;54657;52.022;5.534;2023-07-13T12:40:51;23.40;72.70
65046;DHT22;54657;52.022;5.534;2023-07-13T12:43:20;23.40;71.90
65046;DHT22;54657;52.022;5.534;2023-07-13T12:48:21;23.40;69.30
65046;DHT22;54657;52.022;5.534;2023-07-13T12:50:48;23.20;71.70
65046;DHT22;54657;52.022;5.534;2023-07-13T12:53:35;23.30;71.60
65046;DHT22;54657;52.022;5.534;2023-07-13T12:56:05;23.50;70.30
65046;DHT22;54657;52.022;5.534;2023-07-13T12:58:40;23.60;70.90
65046;DHT22;54657;52.022;5.534;2023-07-13T13:01:13;23.70;68.80
65046;DHT22;54657;52.022;5.534;2023-07-13T13:03:49;23.80;70.10
65046;DHT22;54657;52.022;5.534;2023-07-13T13:08:49;24.00;69.70
65046;DHT22;54657;52.022;5.534;2023-07-13T13:11:19;24.20;69.30
65046;DHT22;54657;52.022;5.534;2023-07-13T13:13:45;24.30;69.30
65046;DHT22;54657;52.022;5.534;2023-07-13T13:16:21;24.40;69.40
65046;DHT22;54657;52.022;5.534;2023-07-13T13:18:52;24.40;66.40
65046;DHT22;54657;52.022;5.534;2023-07-13T13:21:18;24.40;68.40
65046;DHT22;54657;52.022;5.534;2023-07-13T13:23:45;24.40;68.50
65046;DHT22;54657;52.022;5.534;2023-07-13T13:26:13;24.50;67.90
65046;DHT22;54657;52.022;5.534;2023-07-13T13:28:40;24.60;66.90
65046;DHT22;54657;52.022;5.534;2023-07-13T13:31:08;24.70;67.70
65046;DHT22;54657;52.022;5.534;2023-07-13T13:33:38;24.50;66.30
65046;DHT22;54657;52.022;5.534;2023-07-13T13:36:17;24.50;67.30
65046;DHT22;54657;52.022;5.534;2023-07-13T13:38:43;24.30;66.10
65046;DHT22;54657;52.022;5.534;2023-07-13T13:41:11;24.30;67.40
65046;DHT22;54657;52.022;5.534;2023-07-13T13:43:41;24.30;66.50
65046;DHT22;54657;52.022;5.534;2023-07-13T13:46:20;24.30;66.60
65046;DHT22;54657;52.022;5.534;2023-07-13T13:48:55;24.30;66.10
65046;DHT22;54657;52.022;5.534;2023-07-13T13:51:23;24.40;66.50
65046;DHT22;54657;52.022;5.534;2023-07-13T13:53:49;24.40;66.30
65046;DHT22;54657;52.022;5.534;2023-07-13T13:56:18;24.50;66.30
65046;DHT22;54657;52.022;5.534;2023-07-13T13:58:44;24.70;66.00
65046;DHT22;54657;52.022;5.534;2023-07-13T14:01:21;24.70;65.50
65046;DHT22;54657;52.022;5.534;2023-07-13T14:03:47;24.70;63.00
65046;DHT22;54657;52.022;5.534;2023-07-13T14:06:19;24.80;65.40
65046;DHT22;54657;52.022;5.534;2023-07-13T14:08:46;24.90;65.50
65046;DHT22;54657;52.022;5.534;2023-07-13T14:11:18;24.90;64.80
65046;DHT22;54657;52.022;5.534;2023-07-13T14:13:55;24.90;62.80
65046;DHT22;54657;52.022;5.534;2023-07-13T14:16:22;24.90;63.80
65046;DHT22;54657;52.022;5.534;2023-07-13T14:18:53;24.80;63.60
65046;DHT22;54657;52.022;5.534;2023-07-13T14:21:21;24.70;64.30
65046;DHT22;54657;52.022;5.534;2023-07-13T14:23:48;24.70;64.20
65046;DHT22;54657;52.022;5.534;2023-07-13T14:26:17;24.70;64.20
65046;DHT22;54657;52.022;5.534;2023-07-13T14:28:45;24.70;63.90
65046;DHT22;54657;52.022;5.534;2023-07-13T14:31:13;24.80;63.70
65046;DHT22;54657;52.022;5.534;2023-07-13T14:33:39;24.70;63.90
65046;DHT22;54657;52.022;5.534;2023-07-13T14:39:20;25.00;62.50
65046;DHT22;54657;52.022;5.534;2023-07-13T14:41:51;25.10;62.90
65046;DHT22;54657;52.022;5.534;2023-07-13T14:44:21;25.10;62.40
65046;DHT22;54657;52.022;5.534;2023-07-13T14:46:49;25.10;62.70
65046;DHT22;54657;52.022;5.534;2023-07-13T14:51:51;25.00;61.10
65046;DHT22;54657;52.022;5.534;2023-07-13T14:54:17;25.00;63.10
65046;DHT22;54657;52.022;5.534;2023-07-13T14:56:43;24.90;63.10
65046;DHT22;54657;52.022;5.534;2023-07-13T14:59:09;24.80;62.90
65046;DHT22;54657;52.022;5.534;2023-07-13T15:01:36;24.80;62.80
65046;DHT22;54657;52.022;5.534;2023-07-13T15:04:02;24.90;62.20
65046;DHT22;54657;52.022;5.534;2023-07-13T15:06:29;24.90;62.20
65046;DHT22;54657;52.022;5.534;2023-07-13T15:08:57;24.90;62.40
65046;DHT22;54657;52.022;5.534;2023-07-13T15:11:22;24.90;62.10
65046;DHT22;54657;52.022;5.534;2023-07-13T15:13:48;24.80;62.00
65046;DHT22;54657;52.022;5.534;2023-07-13T15:16:18;24.90;62.20
65046;DHT22;54657;52.022;5.534;2023-07-13T15:18:46;24.70;61.70
65046;DHT22;54657;52.022;5.534;2023-07-13T15:21:22;24.70;62.60
65046;DHT22;54657;52.022;5.534;2023-07-13T15:23:49;24.50;61.40
65046;DHT22;54657;52.022;5.534;2023-07-13T15:26:16;24.50;62.70
65046;DHT22;54657;52.022;5.534;2023-07-13T15:28:43;24.40;62.60
65046;DHT22;54657;52.022;5.534;2023-07-13T15:33:45;24.30;60.70
65046;DHT22;54657;52.022;5.534;2023-07-13T15:36:14;24.20;62.50
65046;DHT22;54657;52.022;5.534;2023-07-13T15:38:39;24.20;62.40
65046;DHT22;54657;52.022;5.534;2023-07-13T15:41:19;24.20;62.70
65046;DHT22;54657;52.022;5.534;2023-07-13T15:43:47;24.20;60.70
65046;DHT22;54657;52.022;5.534;2023-07-13T15:46:13;24.00;62.30
65046;DHT22;54657;52.022;5.534;2023-07-13T15:48:39;23.90;62.30
65046;DHT22;54657;52.022;5.534;2023-07-13T15:51:10;23.90;62.20
65046;DHT22;54657;52.022;5.534;2023-07-13T15:53:39;23.90;61.50
65046;DHT22;54657;52.022;5.534;2023-07-13T15:56:34;23.80;62.00
65046;DHT22;54657;52.022;5.534;2023-07-13T15:58:59;23.90;60.60
65046;DHT22;54657;52.022;5.534;2023-07-13T16:01:26;24.00;62.00
65046;DHT22;54657;52.022;5.534;2023-07-13T16:03:52;24.00;61.40
65046;DHT22;54657;52.022;5.534;2023-07-13T16:06:19;24.00;61.30
65046;DHT22;54657;52.022;5.534;2023-07-13T16:08:48;24.00;61.30
65046;DHT22;54657;52.022;5.534;2023-07-13T16:11:21;24.10;61.20
65046;DHT22;54657;52.022;5.534;2023-07-13T16:13:48;24.20;60.00
65046;DHT22;54657;52.022;5.534;2023-07-13T16:16:19;24.10;60.60
65046;DHT22;54657;52.022;5.534;2023-07-13T16:18:45;24.10;60.70
65046;DHT22;54657;52.022;5.534;2023-07-13T16:21:13;24.00;60.80
65046;DHT22;54657;52.022;5.534;2023-07-13T16:23:41;23.90;60.70
65046;DHT22;54657;52.022;5.534;2023-07-13T16:26:33;23.90;61.00
65046;DHT22;54657;52.022;5.534;2023-07-13T16:29:29;24.00;58.60